메인 페이지
METAR-TAF:

METAR-TAF

공항 :

Tonopah Airport

Tonopah, 네바다, 미국

위도: 38-03-37N, 경도: 117-05-14W, 고도: 1654m

현재 날씨관측

예보는 1 시간 14분 전, 18:56시(UTC)에 발표되었습니다.
남서10kt, 순간 최대 풍속 16kt
온도 31°C
습도 9%
기압 1020 hPa
시정: 16.1km
맑음

METAR: KTPH 131856Z AUTO 22010G16KT 10SM CLR 31/M05 A3011 RMK AO2 SLP113 T03061050

시각: 13:10 (20:10 UTC)

예보

예보는 2 시간 46분 전, 17:24시(UTC)에 발표되었습니다.
예보 대상 시간: 13일 18시부터 14일 18시까지 (UTC)
12kt, 순간 최대 풍속 22kt
시정: 10km
고도 15000ft 상공 구름 조금
14일 0400시부터 (UTC)
8kt
시정: 10km
맑음

TAF: KTPH 131724Z 1318/1418 19012G22KT P6SM FEW150 FM140400 36008KT P6SM SKC

4,000개 이상의 공항 관측 자료 및 예보 (METAR 및 TAF 보고).

지도상에서 검색 가능한 기상관측소가 노란 점과 빨간 점으로 표시되어 있습니다.

기상관측소 명을 보려면 표시 위로 마우스를 이동하세요.

날씨 관측과 예보를 보려면 클릭하세요.

지도 변경 : 확대하려면 엑스 표시가 있는 녹색 버튼, 축소하려면 빼기 표시가 있는 녹색 버튼, 다음 페이지의 지도를 보려면 녹색 화살표를 클릭하세요.


METAR-TAF: